sensor_id;sensor_type;location;lat;lon;timestamp;temperature;humidity
2647;DHT22;1333;50.958;6.770;2022-10-15T00:01:39;15.00;99.90
2647;DHT22;1333;50.958;6.770;2022-10-15T00:04:05;15.00;99.90
2647;DHT22;1333;50.958;6.770;2022-10-15T00:06:31;15.00;99.90
2647;DHT22;1333;50.958;6.770;2022-10-15T00:08:56;15.00;99.90
2647;DHT22;1333;50.958;6.770;2022-10-15T00:11:24;15.00;99.90
2647;DHT22;1333;50.958;6.770;2022-10-15T00:13:55;15.10;99.90
2647;DHT22;1333;50.958;6.770;2022-10-15T00:16:23;15.10;99.90
2647;DHT22;1333;50.958;6.770;2022-10-15T00:18:50;15.10;99.90
2647;DHT22;1333;50.958;6.770;2022-10-15T00:21:18;15.10;99.90
2647;DHT22;1333;50.958;6.770;2022-10-15T00:23:45;15.10;99.90
2647;DHT22;1333;50.958;6.770;2022-10-15T00:26:20;15.10;99.90
2647;DHT22;1333;50.958;6.770;2022-10-15T00:28:48;15.10;99.90
2647;DHT22;1333;50.958;6.770;2022-10-15T00:31:15;15.20;99.90
2647;DHT22;1333;50.958;6.770;2022-10-15T00:33:41;15.20;99.90
2647;DHT22;1333;50.958;6.770;2022-10-15T00:36:12;15.20;99.90
2647;DHT22;1333;50.958;6.770;2022-10-15T00:38:38;15.20;99.90
2647;DHT22;1333;50.958;6.770;2022-10-15T00:41:06;15.10;99.90
2647;DHT22;1333;50.958;6.770;2022-10-15T00:43:43;15.10;99.90
2647;DHT22;1333;50.958;6.770;2022-10-15T00:46:17;15.10;99.90
2647;DHT22;1333;50.958;6.770;2022-10-15T00:48:47;15.00;99.90
2647;DHT22;1333;50.958;6.770;2022-10-15T00:51:15;14.90;99.90
2647;DHT22;1333;50.958;6.770;2022-10-15T00:53:41;14.80;99.90
2647;DHT22;1333;50.958;6.770;2022-10-15T00:56:07;14.60;99.90
2647;DHT22;1333;50.958;6.770;2022-10-15T00:58:34;14.50;99.90
2647;DHT22;1333;50.958;6.770;2022-10-15T01:01:00;14.50;99.90
2647;DHT22;1333;50.958;6.770;2022-10-15T01:03:26;14.40;99.90
2647;DHT22;1333;50.958;6.770;2022-10-15T01:05:51;14.30;99.90
2647;DHT22;1333;50.958;6.770;2022-10-15T01:08:18;14.30;99.90
2647;DHT22;1333;50.958;6.770;2022-10-15T01:10:59;14.20;99.90
2647;DHT22;1333;50.958;6.770;2022-10-15T01:13:37;14.20;99.90
2647;DHT22;1333;50.958;6.770;2022-10-15T01:16:21;14.10;99.90
2647;DHT22;1333;50.958;6.770;2022-10-15T01:18:57;14.00;99.90
2647;DHT22;1333;50.958;6.770;2022-10-15T01:21:53;14.00;99.90
2647;DHT22;1333;50.958;6.770;2022-10-15T01:27:26;13.90;99.90
2647;DHT22;1333;50.958;6.770;2022-10-15T01:30:19;13.80;99.90
2647;DHT22;1333;50.958;6.770;2022-10-15T01:35:50;13.70;99.90
2647;DHT22;1333;50.958;6.770;2022-10-15T01:41:00;13.60;99.90
2647;DHT22;1333;50.958;6.770;2022-10-15T01:44:23;13.60;99.90
2647;DHT22;1333;50.958;6.770;2022-10-15T01:46:40;13.60;99.90
2647;DHT22;1333;50.958;6.770;2022-10-15T01:49:08;13.60;99.90
2647;DHT22;1333;50.958;6.770;2022-10-15T01:51:37;13.60;99.90
2647;DHT22;1333;50.958;6.770;2022-10-15T01:54:06;13.70;99.90
2647;DHT22;1333;50.958;6.770;2022-10-15T01:56:34;13.80;99.90
2647;DHT22;1333;50.958;6.770;2022-10-15T01:59:01;13.80;99.90
2647;DHT22;1333;50.958;6.770;2022-10-15T02:01:28;13.90;99.90
2647;DHT22;1333;50.958;6.770;2022-10-15T02:03:54;13.90;99.90
2647;DHT22;1333;50.958;6.770;2022-10-15T02:06:33;14.00;99.90
2647;DHT22;1333;50.958;6.770;2022-10-15T02:09:13;14.00;99.90
2647;DHT22;1333;50.958;6.770;2022-10-15T02:15:02;14.10;99.90
2647;DHT22;1333;50.958;6.770;2022-10-15T02:17:40;14.10;99.90
2647;DHT22;1333;50.958;6.770;2022-10-15T02:20:14;14.10;99.90
2647;DHT22;1333;50.958;6.770;2022-10-15T02:22:47;14.10;99.90
2647;DHT22;1333;50.958;6.770;2022-10-15T02:25:21;14.10;99.90
2647;DHT22;1333;50.958;6.770;2022-10-15T02:27:48;14.20;99.90
2647;DHT22;1333;50.958;6.770;2022-10-15T02:30:16;14.20;99.90
2647;DHT22;1333;50.958;6.770;2022-10-15T02:32:43;14.30;99.90
2647;DHT22;1333;50.958;6.770;2022-10-15T02:35:10;14.40;99.90
2647;DHT22;1333;50.958;6.770;2022-10-15T02:37:37;14.40;99.90
2647;DHT22;1333;50.958;6.770;2022-10-15T02:40:07;14.40;99.90
2647;DHT22;1333;50.958;6.770;2022-10-15T02:42:33;14.40;99.90
2647;DHT22;1333;50.958;6.770;2022-10-15T02:44:58;14.50;99.90
2647;DHT22;1333;50.958;6.770;2022-10-15T02:47:24;14.50;99.90
2647;DHT22;1333;50.958;6.770;2022-10-15T02:49:49;14.50;99.90
2647;DHT22;1333;50.958;6.770;2022-10-15T02:52:15;14.50;99.90
2647;DHT22;1333;50.958;6.770;2022-10-15T02:54:40;14.50;99.90
2647;DHT22;1333;50.958;6.770;2022-10-15T02:57:06;14.50;99.90
2647;DHT22;1333;50.958;6.770;2022-10-15T02:59:31;14.50;99.90
2647;DHT22;1333;50.958;6.770;2022-10-15T03:01:57;14.50;99.90
2647;DHT22;1333;50.958;6.770;2022-10-15T03:04:22;14.50;99.90
2647;DHT22;1333;50.958;6.770;2022-10-15T03:06:48;14.50;99.90
2647;DHT22;1333;50.958;6.770;2022-10-15T03:09:13;14.50;99.90
2647;DHT22;1333;50.958;6.770;2022-10-15T03:11:39;14.50;99.90
2647;DHT22;1333;50.958;6.770;2022-10-15T03:14:04;14.50;99.90
2647;DHT22;1333;50.958;6.770;2022-10-15T03:16:30;14.60;99.90
2647;DHT22;1333;50.958;6.770;2022-10-15T03:18:56;14.60;99.90
2647;DHT22;1333;50.958;6.770;2022-10-15T03:21:21;14.60;99.90
2647;DHT22;1333;50.958;6.770;2022-10-15T03:23:47;14.60;99.90
2647;DHT22;1333;50.958;6.770;2022-10-15T03:26:12;14.60;99.90
2647;DHT22;1333;50.958;6.770;2022-10-15T03:28:37;14.60;99.90
2647;DHT22;1333;50.958;6.770;2022-10-15T03:31:03;14.60;99.90
2647;DHT22;1333;50.958;6.770;2022-10-15T03:33:29;14.70;99.90
2647;DHT22;1333;50.958;6.770;2022-10-15T03:35:54;14.60;99.90
2647;DHT22;1333;50.958;6.770;2022-10-15T03:38:21;14.70;99.90
2647;DHT22;1333;50.958;6.770;2022-10-15T03:40:47;14.60;99.90
2647;DHT22;1333;50.958;6.770;2022-10-15T03:43:13;14.60;99.90
2647;DHT22;1333;50.958;6.770;2022-10-15T03:45:38;14.60;99.90
2647;DHT22;1333;50.958;6.770;2022-10-15T03:48:04;14.60;99.90
2647;DHT22;1333;50.958;6.770;2022-10-15T03:50:30;14.60;99.90
2647;DHT22;1333;50.958;6.770;2022-10-15T03:52:55;14.60;99.90
2647;DHT22;1333;50.958;6.770;2022-10-15T03:55:21;14.60;99.90
2647;DHT22;1333;50.958;6.770;2022-10-15T03:57:46;14.60;99.90
2647;DHT22;1333;50.958;6.770;2022-10-15T04:00:12;14.60;99.90
2647;DHT22;1333;50.958;6.770;2022-10-15T04:02:38;14.60;99.90
2647;DHT22;1333;50.958;6.770;2022-10-15T04:05:04;14.60;99.90
2647;DHT22;1333;50.958;6.770;2022-10-15T04:07:30;14.60;99.90
2647;DHT22;1333;50.958;6.770;2022-10-15T04:09:55;14.60;99.90
2647;DHT22;1333;50.958;6.770;2022-10-15T04:12:21;14.60;99.90
2647;DHT22;1333;50.958;6.770;2022-10-15T04:14:47;14.60;99.90
2647;DHT22;1333;50.958;6.770;2022-10-15T04:17:12;14.60;99.90
2647;DHT22;1333;50.958;6.770;2022-10-15T04:19:38;14.60;99.90
2647;DHT22;1333;50.958;6.770;2022-10-15T04:22:03;14.60;99.90
2647;DHT22;1333;50.958;6.770;2022-10-15T04:24:29;14.60;99.90
2647;DHT22;1333;50.958;6.770;2022-10-15T04:26:54;14.60;99.90
2647;DHT22;1333;50.958;6.770;2022-10-15T04:29:20;14.60;99.90
2647;DHT22;1333;50.958;6.770;2022-10-15T04:31:45;14.50;99.90
2647;DHT22;1333;50.958;6.770;2022-10-15T04:34:11;14.50;99.90
2647;DHT22;1333;50.958;6.770;2022-10-15T04:36:36;14.40;99.90
2647;DHT22;1333;50.958;6.770;2022-10-15T04:39:03;14.30;99.90
2647;DHT22;1333;50.958;6.770;2022-10-15T04:41:29;14.30;99.90
2647;DHT22;1333;50.958;6.770;2022-10-15T04:43:56;14.20;99.90
2647;DHT22;1333;50.958;6.770;2022-10-15T04:46:21;14.20;99.90
2647;DHT22;1333;50.958;6.770;2022-10-15T04:48:47;14.20;99.90
2647;DHT22;1333;50.958;6.770;2022-10-15T04:51:16;14.10;99.90
2647;DHT22;1333;50.958;6.770;2022-10-15T04:53:42;14.10;99.90
2647;DHT22;1333;50.958;6.770;2022-10-15T04:56:12;14.10;99.90
2647;DHT22;1333;50.958;6.770;2022-10-15T04:58:42;14.10;99.90
2647;DHT22;1333;50.958;6.770;2022-10-15T05:01:11;14.10;99.90
2647;DHT22;1333;50.958;6.770;2022-10-15T05:03:38;14.10;99.90
2647;DHT22;1333;50.958;6.770;2022-10-15T05:06:09;14.10;99.90
2647;DHT22;1333;50.958;6.770;2022-10-15T05:08:36;14.20;99.90
2647;DHT22;1333;50.958;6.770;2022-10-15T05:11:08;14.20;99.90
2647;DHT22;1333;50.958;6.770;2022-10-15T05:13:34;14.20;99.90
2647;DHT22;1333;50.958;6.770;2022-10-15T05:16:21;14.20;99.90
2647;DHT22;1333;50.958;6.770;2022-10-15T05:18:49;14.20;99.90
2647;DHT22;1333;50.958;6.770;2022-10-15T05:21:15;14.10;99.90
2647;DHT22;1333;50.958;6.770;2022-10-15T05:23:42;14.10;99.90
2647;DHT22;1333;50.958;6.770;2022-10-15T05:26:11;14.10;99.90
2647;DHT22;1333;50.958;6.770;2022-10-15T05:28:37;14.10;99.90
2647;DHT22;1333;50.958;6.770;2022-10-15T05:31:13;14.10;99.90
2647;DHT22;1333;50.958;6.770;2022-10-15T05:33:39;14.10;99.90
2647;DHT22;1333;50.958;6.770;2022-10-15T05:36:20;14.00;99.90
2647;DHT22;1333;50.958;6.770;2022-10-15T05:38:48;14.00;99.90
2647;DHT22;1333;50.958;6.770;2022-10-15T05:41:14;14.00;99.90
2647;DHT22;1333;50.958;6.770;2022-10-15T05:43:40;13.90;99.90
2647;DHT22;1333;50.958;6.770;2022-10-15T05:46:06;13.80;99.90
2647;DHT22;1333;50.958;6.770;2022-10-15T05:48:32;13.70;99.90
2647;DHT22;1333;50.958;6.770;2022-10-15T05:51:06;13.70;99.90
2647;DHT22;1333;50.958;6.770;2022-10-15T05:53:33;13.60;99.90
2647;DHT22;1333;50.958;6.770;2022-10-15T05:55:59;13.50;99.90
2647;DHT22;1333;50.958;6.770;2022-10-15T05:58:25;13.40;99.90
2647;DHT22;1333;50.958;6.770;2022-10-15T06:00:58;13.30;99.90
2647;DHT22;1333;50.958;6.770;2022-10-15T06:03:24;13.20;99.90
2647;DHT22;1333;50.958;6.770;2022-10-15T06:05:49;13.10;99.90
2647;DHT22;1333;50.958;6.770;2022-10-15T06:08:16;13.00;99.90
2647;DHT22;1333;50.958;6.770;2022-10-15T06:10:41;12.90;99.90
2647;DHT22;1333;50.958;6.770;2022-10-15T06:13:07;12.90;99.90
2647;DHT22;1333;50.958;6.770;2022-10-15T06:15:33;12.80;99.90
2647;DHT22;1333;50.958;6.770;2022-10-15T06:17:59;12.80;99.90
2647;DHT22;1333;50.958;6.770;2022-10-15T06:20:25;12.80;99.90
2647;DHT22;1333;50.958;6.770;2022-10-15T06:22:50;12.80;99.90
2647;DHT22;1333;50.958;6.770;2022-10-15T06:25:16;12.90;99.90
2647;DHT22;1333;50.958;6.770;2022-10-15T06:27:41;12.90;99.90
2647;DHT22;1333;50.958;6.770;2022-10-15T06:30:07;13.00;99.90
2647;DHT22;1333;50.958;6.770;2022-10-15T06:32:33;13.00;99.90
2647;DHT22;1333;50.958;6.770;2022-10-15T06:34:59;13.10;99.90
2647;DHT22;1333;50.958;6.770;2022-10-15T06:37:24;13.10;99.90
2647;DHT22;1333;50.958;6.770;2022-10-15T06:39:50;13.20;99.90
2647;DHT22;1333;50.958;6.770;2022-10-15T06:42:15;13.30;99.90
2647;DHT22;1333;50.958;6.770;2022-10-15T06:44:41;13.50;99.90
2647;DHT22;1333;50.958;6.770;2022-10-15T06:47:07;13.60;99.90
2647;DHT22;1333;50.958;6.770;2022-10-15T06:49:32;13.70;99.90
2647;DHT22;1333;50.958;6.770;2022-10-15T06:51:58;13.80;99.90
2647;DHT22;1333;50.958;6.770;2022-10-15T06:54:24;13.90;99.90
2647;DHT22;1333;50.958;6.770;2022-10-15T06:56:50;14.00;99.90
2647;DHT22;1333;50.958;6.770;2022-10-15T06:59:15;14.10;99.90
2647;DHT22;1333;50.958;6.770;2022-10-15T07:01:41;14.20;99.90
2647;DHT22;1333;50.958;6.770;2022-10-15T07:04:07;14.30;99.90
2647;DHT22;1333;50.958;6.770;2022-10-15T07:06:35;14.50;99.90
2647;DHT22;1333;50.958;6.770;2022-10-15T07:09:02;14.60;99.90
2647;DHT22;1333;50.958;6.770;2022-10-15T07:11:27;14.80;99.90
2647;DHT22;1333;50.958;6.770;2022-10-15T07:13:53;14.90;99.90
2647;DHT22;1333;50.958;6.770;2022-10-15T07:16:19;15.00;99.90
2647;DHT22;1333;50.958;6.770;2022-10-15T07:18:46;15.10;99.90
2647;DHT22;1333;50.958;6.770;2022-10-15T07:21:12;15.00;99.90
2647;DHT22;1333;50.958;6.770;2022-10-15T07:23:38;15.10;99.90
2647;DHT22;1333;50.958;6.770;2022-10-15T07:26:03;15.20;99.90
2647;DHT22;1333;50.958;6.770;2022-10-15T07:28:29;15.20;99.90
2647;DHT22;1333;50.958;6.770;2022-10-15T07:31:02;15.30;99.90
2647;DHT22;1333;50.958;6.770;2022-10-15T07:33:28;15.50;99.90
2647;DHT22;1333;50.958;6.770;2022-10-15T07:35:54;15.60;99.90
2647;DHT22;1333;50.958;6.770;2022-10-15T07:38:19;15.80;99.90
2647;DHT22;1333;50.958;6.770;2022-10-15T07:40:45;15.90;99.90
2647;DHT22;1333;50.958;6.770;2022-10-15T07:43:11;16.00;99.90
2647;DHT22;1333;50.958;6.770;2022-10-15T07:45:36;16.10;99.90
2647;DHT22;1333;50.958;6.770;2022-10-15T07:48:02;16.30;99.90
2647;DHT22;1333;50.958;6.770;2022-10-15T07:50:28;16.40;99.90
2647;DHT22;1333;50.958;6.770;2022-10-15T07:52:53;16.50;99.90
2647;DHT22;1333;50.958;6.770;2022-10-15T07:55:19;16.60;99.90
2647;DHT22;1333;50.958;6.770;2022-10-15T07:57:44;16.60;99.90
2647;DHT22;1333;50.958;6.770;2022-10-15T08:00:10;16.60;99.90
2647;DHT22;1333;50.958;6.770;2022-10-15T08:02:36;16.70;99.90
2647;DHT22;1333;50.958;6.770;2022-10-15T08:05:02;16.60;99.90
2647;DHT22;1333;50.958;6.770;2022-10-15T08:07:27;16.60;99.90
2647;DHT22;1333;50.958;6.770;2022-10-15T08:09:53;16.50;99.90
2647;DHT22;1333;50.958;6.770;2022-10-15T08:12:18;16.50;99.90
2647;DHT22;1333;50.958;6.770;2022-10-15T08:14:45;16.50;99.90
2647;DHT22;1333;50.958;6.770;2022-10-15T08:17:10;16.50;99.90
2647;DHT22;1333;50.958;6.770;2022-10-15T08:19:36;16.50;99.90
2647;DHT22;1333;50.958;6.770;2022-10-15T08:22:01;16.50;99.90
2647;DHT22;1333;50.958;6.770;2022-10-15T08:24:28;16.80;99.90
2647;DHT22;1333;50.958;6.770;2022-10-15T08:26:56;17.00;99.90
2647;DHT22;1333;50.958;6.770;2022-10-15T08:29:22;17.10;99.90
2647;DHT22;1333;50.958;6.770;2022-10-15T08:31:47;17.00;99.90
2647;DHT22;1333;50.958;6.770;2022-10-15T08:34:13;16.90;99.90
2647;DHT22;1333;50.958;6.770;2022-10-15T08:36:39;16.80;99.90
2647;DHT22;1333;50.958;6.770;2022-10-15T08:39:04;17.00;99.90
2647;DHT22;1333;50.958;6.770;2022-10-15T08:41:48;17.20;99.90
2647;DHT22;1333;50.958;6.770;2022-10-15T08:44:27;17.20;99.90
2647;DHT22;1333;50.958;6.770;2022-10-15T08:47:07;17.20;99.90
2647;DHT22;1333;50.958;6.770;2022-10-15T08:52:25;17.20;99.90
2647;DHT22;1333;50.958;6.770;2022-10-15T08:54:54;17.20;99.90
2647;DHT22;1333;50.958;6.770;2022-10-15T09:00:26;17.50;99.90
2647;DHT22;1333;50.958;6.770;2022-10-15T09:03:03;17.80;99.90
2647;DHT22;1333;50.958;6.770;2022-10-15T09:08:58;18.20;99.90
2647;DHT22;1333;50.958;6.770;2022-10-15T09:14:26;18.30;99.90
2647;DHT22;1333;50.958;6.770;2022-10-15T09:16:53;18.50;99.90
2647;DHT22;1333;50.958;6.770;2022-10-15T09:19:21;18.80;99.90
2647;DHT22;1333;50.958;6.770;2022-10-15T09:21:49;19.00;99.90
2647;DHT22;1333;50.958;6.770;2022-10-15T09:24:22;19.30;99.90
2647;DHT22;1333;50.958;6.770;2022-10-15T09:27:08;19.40;99.90
2647;DHT22;1333;50.958;6.770;2022-10-15T09:29:50;19.50;99.90
2647;DHT22;1333;50.958;6.770;2022-10-15T09:37:53;19.50;99.90
2647;DHT22;1333;50.958;6.770;2022-10-15T09:43:09;20.30;99.90
2647;DHT22;1333;50.958;6.770;2022-10-15T09:45:36;20.30;99.90
2647;DHT22;1333;50.958;6.770;2022-10-15T09:48:14;20.10;99.90
2647;DHT22;1333;50.958;6.770;2022-10-15T09:50:48;20.30;99.90
2647;DHT22;1333;50.958;6.770;2022-10-15T09:53:26;20.40;99.90
2647;DHT22;1333;50.958;6.770;2022-10-15T09:58:39;20.40;99.90
2647;DHT22;1333;50.958;6.770;2022-10-15T10:01:15;20.30;99.90
2647;DHT22;1333;50.958;6.770;2022-10-15T10:03:41;20.10;99.90
2647;DHT22;1333;50.958;6.770;2022-10-15T10:06:08;20.00;99.90
2647;DHT22;1333;50.958;6.770;2022-10-15T10:08:55;20.00;99.90
2647;DHT22;1333;50.958;6.770;2022-10-15T10:11:23;20.70;99.90
2647;DHT22;1333;50.958;6.770;2022-10-15T10:13:53;21.30;99.90
2647;DHT22;1333;50.958;6.770;2022-10-15T10:16:20;21.30;99.90
2647;DHT22;1333;50.958;6.770;2022-10-15T10:19:10;21.20;99.90
2647;DHT22;1333;50.958;6.770;2022-10-15T10:21:37;21.50;99.90
2647;DHT22;1333;50.958;6.770;2022-10-15T10:26:49;21.60;99.90
2647;DHT22;1333;50.958;6.770;2022-10-15T10:29:19;21.10;99.90
2647;DHT22;1333;50.958;6.770;2022-10-15T10:31:46;20.60;99.90
2647;DHT22;1333;50.958;6.770;2022-10-15T10:34:18;20.20;99.90
2647;DHT22;1333;50.958;6.770;2022-10-15T10:36:50;20.00;99.90
2647;DHT22;1333;50.958;6.770;2022-10-15T10:39:30;19.80;99.90
2647;DHT22;1333;50.958;6.770;2022-10-15T10:44:38;19.30;99.90
2647;DHT22;1333;50.958;6.770;2022-10-15T10:47:25;19.10;99.90
2647;DHT22;1333;50.958;6.770;2022-10-15T10:49:55;19.00;99.90
2647;DHT22;1333;50.958;6.770;2022-10-15T10:52:34;19.00;99.90
2647;DHT22;1333;50.958;6.770;2022-10-15T11:00:18;19.40;99.90
2647;DHT22;1333;50.958;6.770;2022-10-15T11:02:44;19.50;99.90
2647;DHT22;1333;50.958;6.770;2022-10-15T11:05:11;19.70;99.90
2647;DHT22;1333;50.958;6.770;2022-10-15T11:07:56;19.80;99.90
2647;DHT22;1333;50.958;6.770;2022-10-15T11:10:29;19.90;99.90
2647;DHT22;1333;50.958;6.770;2022-10-15T11:13:23;19.90;99.90
2647;DHT22;1333;50.958;6.770;2022-10-15T11:16:00;20.10;99.90
2647;DHT22;1333;50.958;6.770;2022-10-15T11:21:09;20.10;99.90
2647;DHT22;1333;50.958;6.770;2022-10-15T11:26:36;20.20;99.90
2647;DHT22;1333;50.958;6.770;2022-10-15T11:29:11;20.20;99.90
2647;DHT22;1333;50.958;6.770;2022-10-15T11:37:25;20.20;99.90
2647;DHT22;1333;50.958;6.770;2022-10-15T11:40:12;20.30;99.90
2647;DHT22;1333;50.958;6.770;2022-10-15T11:42:59;20.20;99.90
2647;DHT22;1333;50.958;6.770;2022-10-15T11:45:54;20.20;99.90
2647;DHT22;1333;50.958;6.770;2022-10-15T11:48:42;20.20;99.90
2647;DHT22;1333;50.958;6.770;2022-10-15T11:54:14;20.80;99.90
2647;DHT22;1333;50.958;6.770;2022-10-15T11:56:46;21.50;99.90
2647;DHT22;1333;50.958;6.770;2022-10-15T11:59:32;21.90;99.90
2647;DHT22;1333;50.958;6.770;2022-10-15T12:02:21;22.40;99.90
2647;DHT22;1333;50.958;6.770;2022-10-15T12:05:00;22.60;99.90
2647;DHT22;1333;50.958;6.770;2022-10-15T12:07:41;22.70;99.90
2647;DHT22;1333;50.958;6.770;2022-10-15T12:10:13;22.80;99.90
2647;DHT22;1333;50.958;6.770;2022-10-15T12:13:18;22.70;99.90
2647;DHT22;1333;50.958;6.770;2022-10-15T12:19:15;22.40;99.90
2647;DHT22;1333;50.958;6.770;2022-10-15T12:29:44;21.60;99.90
2647;DHT22;1333;50.958;6.770;2022-10-15T12:32:21;21.70;99.90
2647;DHT22;1333;50.958;6.770;2022-10-15T12:34:53;21.70;99.90
2647;DHT22;1333;50.958;6.770;2022-10-15T12:37:22;21.60;99.90
2647;DHT22;1333;50.958;6.770;2022-10-15T12:40:36;21.40;99.90
2647;DHT22;1333;50.958;6.770;2022-10-15T12:42:42;21.30;99.90
2647;DHT22;1333;50.958;6.770;2022-10-15T12:45:21;21.20;99.90
2647;DHT22;1333;50.958;6.770;2022-10-15T12:50:32;21.10;99.90
2647;DHT22;1333;50.958;6.770;2022-10-15T12:53:04;21.60;99.90
2647;DHT22;1333;50.958;6.770;2022-10-15T12:55:36;22.00;99.90
2647;DHT22;1333;50.958;6.770;2022-10-15T13:00:46;22.90;99.90
2647;DHT22;1333;50.958;6.770;2022-10-15T13:03:16;23.30;99.90
2647;DHT22;1333;50.958;6.770;2022-10-15T13:05:42;23.40;99.90
2647;DHT22;1333;50.958;6.770;2022-10-15T13:08:19;23.20;99.90
2647;DHT22;1333;50.958;6.770;2022-10-15T13:10:51;23.10;99.90
2647;DHT22;1333;50.958;6.770;2022-10-15T13:13:22;22.90;99.90
2647;DHT22;1333;50.958;6.770;2022-10-15T13:16:04;22.60;99.90
2647;DHT22;1333;50.958;6.770;2022-10-15T13:18:31;22.50;99.90
2647;DHT22;1333;50.958;6.770;2022-10-15T13:20:57;22.60;99.90
2647;DHT22;1333;50.958;6.770;2022-10-15T13:23:28;22.60;99.90
2647;DHT22;1333;50.958;6.770;2022-10-15T13:28:43;22.60;99.90
2647;DHT22;1333;50.958;6.770;2022-10-15T13:33:42;22.70;99.90
2647;DHT22;1333;50.958;6.770;2022-10-15T13:36:12;22.80;99.90
2647;DHT22;1333;50.958;6.770;2022-10-15T13:38:40;22.80;99.90
2647;DHT22;1333;50.958;6.770;2022-10-15T13:41:06;22.70;99.90
2647;DHT22;1333;50.958;6.770;2022-10-15T13:43:32;22.60;99.90
2647;DHT22;1333;50.958;6.770;2022-10-15T13:45:59;22.50;99.90
2647;DHT22;1333;50.958;6.770;2022-10-15T13:48:28;22.50;99.90
2647;DHT22;1333;50.958;6.770;2022-10-15T13:50:56;22.90;99.90
2647;DHT22;1333;50.958;6.770;2022-10-15T13:53:36;23.40;99.90
2647;DHT22;1333;50.958;6.770;2022-10-15T13:56:24;24.10;99.90
2647;DHT22;1333;50.958;6.770;2022-10-15T13:58:50;24.50;99.90
2647;DHT22;1333;50.958;6.770;2022-10-15T14:06:25;23.90;99.90
2647;DHT22;1333;50.958;6.770;2022-10-15T14:09:13;23.60;99.90
2647;DHT22;1333;50.958;6.770;2022-10-15T14:11:42;24.00;99.90
2647;DHT22;1333;50.958;6.770;2022-10-15T14:14:28;24.60;99.90
2647;DHT22;1333;50.958;6.770;2022-10-15T14:16:54;24.50;99.90
2647;DHT22;1333;50.958;6.770;2022-10-15T14:19:20;24.20;99.90
2647;DHT22;1333;50.958;6.770;2022-10-15T14:21:51;23.80;99.90
2647;DHT22;1333;50.958;6.770;2022-10-15T14:24:37;23.50;99.90
2647;DHT22;1333;50.958;6.770;2022-10-15T14:27:06;23.30;99.90
2647;DHT22;1333;50.958;6.770;2022-10-15T14:29:46;23.30;99.90
2647;DHT22;1333;50.958;6.770;2022-10-15T14:32:45;23.40;99.90
2647;DHT22;1333;50.958;6.770;2022-10-15T14:35:24;23.40;99.90
2647;DHT22;1333;50.958;6.770;2022-10-15T14:38:00;23.00;99.90
2647;DHT22;1333;50.958;6.770;2022-10-15T14:40:26;22.80;99.90
2647;DHT22;1333;50.958;6.770;2022-10-15T14:43:02;22.50;99.90
2647;DHT22;1333;50.958;6.770;2022-10-15T14:45:31;22.20;99.90
2647;DHT22;1333;50.958;6.770;2022-10-15T14:48:06;22.10;99.90
2647;DHT22;1333;50.958;6.770;2022-10-15T14:50:35;22.00;99.90
2647;DHT22;1333;50.958;6.770;2022-10-15T14:53:07;22.00;99.90
2647;DHT22;1333;50.958;6.770;2022-10-15T14:55:36;21.90;99.90
2647;DHT22;1333;50.958;6.770;2022-10-15T14:58:09;21.80;99.90
2647;DHT22;1333;50.958;6.770;2022-10-15T15:00:40;21.60;99.90
2647;DHT22;1333;50.958;6.770;2022-10-15T15:03:12;21.40;99.90
2647;DHT22;1333;50.958;6.770;2022-10-15T15:05:53;21.00;99.90
2647;DHT22;1333;50.958;6.770;2022-10-15T15:08:19;20.10;99.90
2647;DHT22;1333;50.958;6.770;2022-10-15T15:10:46;19.50;99.90
2647;DHT22;1333;50.958;6.770;2022-10-15T15:13:23;19.10;99.90
2647;DHT22;1333;50.958;6.770;2022-10-15T15:15:49;18.60;99.90
2647;DHT22;1333;50.958;6.770;2022-10-15T15:18:15;18.30;99.90
2647;DHT22;1333;50.958;6.770;2022-10-15T15:20:41;18.10;99.90
2647;DHT22;1333;50.958;6.770;2022-10-15T15:23:21;18.00;99.90
2647;DHT22;1333;50.958;6.770;2022-10-15T15:25:48;17.90;99.90
2647;DHT22;1333;50.958;6.770;2022-10-15T15:28:15;17.90;99.90
2647;DHT22;1333;50.958;6.770;2022-10-15T15:30:43;17.90;99.90
2647;DHT22;1333;50.958;6.770;2022-10-15T15:33:14;17.90;99.90
2647;DHT22;1333;50.958;6.770;2022-10-15T15:35:55;17.90;99.90
2647;DHT22;1333;50.958;6.770;2022-10-15T15:38:24;17.90;99.90
2647;DHT22;1333;50.958;6.770;2022-10-15T15:41:02;17.90;99.90
2647;DHT22;1333;50.958;6.770;2022-10-15T15:43:28;17.80;99.90
2647;DHT22;1333;50.958;6.770;2022-10-15T15:45:54;17.80;99.90
2647;DHT22;1333;50.958;6.770;2022-10-15T15:48:19;17.80;99.90
2647;DHT22;1333;50.958;6.770;2022-10-15T15:50:45;17.70;99.90
2647;DHT22;1333;50.958;6.770;2022-10-15T15:53:11;17.70;99.90
2647;DHT22;1333;50.958;6.770;2022-10-15T15:55:37;17.70;99.90
2647;DHT22;1333;50.958;6.770;2022-10-15T15:58:03;17.70;99.90
2647;DHT22;1333;50.958;6.770;2022-10-15T16:00:28;17.60;99.90
2647;DHT22;1333;50.958;6.770;2022-10-15T16:02:54;17.60;99.90
2647;DHT22;1333;50.958;6.770;2022-10-15T16:05:19;17.60;99.90
2647;DHT22;1333;50.958;6.770;2022-10-15T16:07:45;17.60;99.90
2647;DHT22;1333;50.958;6.770;2022-10-15T16:10:11;17.60;99.90
2647;DHT22;1333;50.958;6.770;2022-10-15T16:12:40;17.50;99.90
2647;DHT22;1333;50.958;6.770;2022-10-15T16:15:07;17.50;99.90
2647;DHT22;1333;50.958;6.770;2022-10-15T16:17:33;17.40;99.90
2647;DHT22;1333;50.958;6.770;2022-10-15T16:19:59;17.40;99.90
2647;DHT22;1333;50.958;6.770;2022-10-15T16:22:24;17.40;99.90
2647;DHT22;1333;50.958;6.770;2022-10-15T16:24:50;17.40;99.90
2647;DHT22;1333;50.958;6.770;2022-10-15T16:27:15;17.40;99.90
2647;DHT22;1333;50.958;6.770;2022-10-15T16:29:41;17.40;99.90
2647;DHT22;1333;50.958;6.770;2022-10-15T16:32:06;17.40;99.90
2647;DHT22;1333;50.958;6.770;2022-10-15T16:34:32;17.30;99.90
2647;DHT22;1333;50.958;6.770;2022-10-15T16:36:58;17.30;99.90
2647;DHT22;1333;50.958;6.770;2022-10-15T16:39:23;17.20;99.90
2647;DHT22;1333;50.958;6.770;2022-10-15T16:41:49;17.20;99.90
2647;DHT22;1333;50.958;6.770;2022-10-15T16:44:14;17.20;99.90
2647;DHT22;1333;50.958;6.770;2022-10-15T16:46:40;17.20;99.90
2647;DHT22;1333;50.958;6.770;2022-10-15T16:49:05;17.10;99.90
2647;DHT22;1333;50.958;6.770;2022-10-15T16:51:31;17.10;99.90
2647;DHT22;1333;50.958;6.770;2022-10-15T16:53:58;17.10;99.90
2647;DHT22;1333;50.958;6.770;2022-10-15T16:56:26;17.00;99.90
2647;DHT22;1333;50.958;6.770;2022-10-15T16:58:52;17.00;99.90
2647;DHT22;1333;50.958;6.770;2022-10-15T17:01:24;17.00;99.90
2647;DHT22;1333;50.958;6.770;2022-10-15T17:03:50;16.90;99.90
2647;DHT22;1333;50.958;6.770;2022-10-15T17:06:20;16.80;99.90
2647;DHT22;1333;50.958;6.770;2022-10-15T17:08:51;16.80;99.90
2647;DHT22;1333;50.958;6.770;2022-10-15T17:11:19;16.80;99.90
2647;DHT22;1333;50.958;6.770;2022-10-15T17:13:45;16.70;99.90
2647;DHT22;1333;50.958;6.770;2022-10-15T17:16:17;16.80;99.90
2647;DHT22;1333;50.958;6.770;2022-10-15T17:18:44;16.80;99.90
2647;DHT22;1333;50.958;6.770;2022-10-15T17:21:11;16.70;99.90
2647;DHT22;1333;50.958;6.770;2022-10-15T17:23:37;16.70;99.90
2647;DHT22;1333;50.958;6.770;2022-10-15T17:26:11;16.60;99.90
2647;DHT22;1333;50.958;6.770;2022-10-15T17:28:38;16.60;99.90
2647;DHT22;1333;50.958;6.770;2022-10-15T17:31:07;16.60;99.90
2647;DHT22;1333;50.958;6.770;2022-10-15T17:33:34;16.50;99.90
2647;DHT22;1333;50.958;6.770;2022-10-15T17:36:03;16.40;99.90
2647;DHT22;1333;50.958;6.770;2022-10-15T17:38:28;16.40;99.90
2647;DHT22;1333;50.958;6.770;2022-10-15T17:40:55;16.40;99.90
2647;DHT22;1333;50.958;6.770;2022-10-15T17:43:20;16.40;99.90
2647;DHT22;1333;50.958;6.770;2022-10-15T17:45:46;16.30;99.90